createdAt,value
2022-08-29T00:00:57.788Z,94653.75
2022-08-29T00:03:02.945Z,94657.56
2022-08-29T00:05:10.565Z,94652.22
2022-08-29T00:07:12.642Z,94653.84
2022-08-29T00:09:14.324Z,94657.34
2022-08-29T00:11:18.348Z,94658.13
2022-08-29T00:13:20.132Z,94655.47
2022-08-29T00:15:22.101Z,94651.41
2022-08-29T00:17:23.806Z,94653.53
2022-08-29T00:19:25.486Z,94649.78
2022-08-29T00:21:27.314Z,94651.66
2022-08-29T00:23:29.092Z,94654.31
2022-08-29T00:25:31.448Z,94650.84
2022-08-29T00:27:33.630Z,94658.06
2022-08-29T00:29:35.797Z,94656.44
2022-08-29T00:31:37.675Z,94643.06
2022-08-29T00:33:39.464Z,94649.47
2022-08-29T00:35:43.070Z,94654.81
2022-08-29T00:37:45.380Z,94643.56
2022-08-29T00:39:47.044Z,94643.56
2022-08-29T00:41:48.873Z,94643.78
2022-08-29T00:43:50.545Z,94652.88
2022-08-29T00:46:03.580Z,94651.25
2022-08-29T00:48:09.374Z,94652.06
2022-08-29T00:50:31.852Z,94651.63
2022-08-29T00:52:37.656Z,94648.06
2022-08-29T00:54:39.571Z,94645.03
2022-08-29T00:56:42.586Z,94640.75
2022-08-29T00:58:54.691Z,94639.13
2022-08-29T01:00:57.260Z,94641.81
2022-08-29T01:02:59.048Z,94648.44
2022-08-29T01:05:00.869Z,94645.22
2022-08-29T01:07:02.521Z,94639.84
2022-08-29T01:09:05.883Z,94636.13
2022-08-29T01:11:26.758Z,94640.66
2022-08-29T01:13:35.075Z,94641.22
2022-08-29T01:15:38.610Z,94640.91
2022-08-29T01:17:44.327Z,94643.00
2022-08-29T01:20:06.784Z,94637.19
2022-08-29T01:22:13.477Z,94641.94
2022-08-29T01:24:43.841Z,94639.59
2022-08-29T01:26:47.319Z,94639.34
2022-08-29T01:28:50.480Z,94633.22
2022-08-29T01:31:57.032Z,94632.97
2022-08-29T01:33:59.814Z,94646.56
2022-08-29T01:36:01.458Z,94643.91
2022-08-29T01:38:03.276Z,94643.41
2022-08-29T01:40:06.162Z,94631.13
2022-08-29T01:42:19.513Z,94634.34
2022-08-29T01:44:25.496Z,94641.81
2022-08-29T01:46:32.129Z,94648.47
2022-08-29T01:48:36.837Z,94638.09
2022-08-29T01:50:38.774Z,94648.47
2022-08-29T01:52:42.106Z,94640.66
2022-08-29T01:54:44.731Z,94641.84
2022-08-29T01:56:49.775Z,94646.56
2022-08-29T01:58:53.846Z,94641.44
2022-08-29T02:00:55.517Z,94655.03
2022-08-29T02:03:00.697Z,94652.25
2022-08-29T02:05:02.313Z,94657.44
2022-08-29T02:07:04.150Z,94661.50
2022-08-29T02:09:06.256Z,94665.72
2022-08-29T02:11:11.539Z,94658.72
2022-08-29T02:13:13.782Z,94661.19
2022-08-29T02:15:19.347Z,94671.09
2022-08-29T02:17:21.204Z,94658.91
2022-08-29T02:19:23.605Z,94659.59
2022-08-29T02:21:27.614Z,94659.03
2022-08-29T02:23:31.105Z,94666.63
2022-08-29T02:25:41.976Z,94660.44
2022-08-29T02:27:44.042Z,94662.25
2022-08-29T02:29:45.717Z,94660.44
2022-08-29T02:31:47.562Z,94660.69
2022-08-29T02:33:50.368Z,94644.13
2022-08-29T02:35:53.318Z,94650.63
2022-08-29T02:37:55.192Z,94652.47
2022-08-29T02:39:56.900Z,94660.47
2022-08-29T02:41:58.627Z,94651.19
2022-08-29T02:44:00.647Z,94656.88
2022-08-29T02:46:03.113Z,94669.06
2022-08-29T02:48:04.938Z,94661.06
2022-08-29T02:50:09.323Z,94661.97
2022-08-29T02:52:12.669Z,94657.13
2022-08-29T02:54:14.357Z,94665.44
2022-08-29T02:56:16.076Z,94663.34
2022-08-29T02:58:18.982Z,94675.13
2022-08-29T03:00:24.630Z,94676.03
2022-08-29T03:02:27.064Z,94673.22
2022-08-29T03:04:28.818Z,94680.09
2022-08-29T03:06:30.491Z,94684.53
2022-08-29T03:08:32.130Z,94684.91
2022-08-29T03:10:34.397Z,94680.50
2022-08-29T03:12:36.741Z,94690.09
2022-08-29T03:14:38.547Z,94694.38
2022-08-29T03:16:40.472Z,94691.25
2022-08-29T03:18:42.335Z,94689.78
2022-08-29T03:20:45.206Z,94690.69
2022-08-29T03:22:47.502Z,94691.28
2022-08-29T03:24:49.291Z,94695.56
2022-08-29T03:26:54.544Z,94691.66
2022-08-29T03:28:58.511Z,94689.31
2022-08-29T03:31:00.274Z,94688.59
2022-08-29T03:33:02.763Z,94690.13
2022-08-29T03:35:05.299Z,94690.09
2022-08-29T03:37:07.017Z,94696.28
2022-08-29T03:39:09.630Z,94693.72
2022-08-29T03:41:11.603Z,94692.91
2022-08-29T03:43:13.428Z,94695.72
2022-08-29T03:45:17.909Z,94700.16
2022-08-29T03:47:19.601Z,94701.91
2022-08-29T03:49:21.542Z,94694.88
2022-08-29T03:51:25.034Z,94700.69
2022-08-29T03:53:33.106Z,94696.44
2022-08-29T03:55:34.796Z,94693.47
2022-08-29T03:57:36.845Z,94698.53
2022-08-29T03:59:38.538Z,94695.84
2022-08-29T04:01:40.381Z,94703.63
2022-08-29T04:03:42.291Z,94697.13
2022-08-29T04:05:43.953Z,94704.66
2022-08-29T04:07:48.411Z,94703.16
2022-08-29T04:09:50.356Z,94701.22
2022-08-29T04:11:52.012Z,94702.75
2022-08-29T04:13:54.487Z,94702.22
2022-08-29T04:15:56.220Z,94710.91
2022-08-29T04:18:00.554Z,94708.38
2022-08-29T04:20:03.080Z,94714.44
2022-08-29T04:22:05.413Z,94710.00
2022-08-29T04:24:07.141Z,94721.03
2022-08-29T04:26:36.064Z,94717.91
2022-08-29T04:28:38.826Z,94715.25
2022-08-29T04:30:49.917Z,94718.97
2022-08-29T04:32:53.284Z,94715.81
2022-08-29T04:34:59.049Z,94718.28
2022-08-29T04:37:01.208Z,94723.97
2022-08-29T04:39:03.848Z,94720.72
2022-08-29T04:41:10.598Z,94726.38
2022-08-29T04:43:12.458Z,94722.31
2022-08-29T04:45:18.012Z,94725.34
2022-08-29T04:47:22.366Z,94727.94
2022-08-29T04:49:24.113Z,94732.00
2022-08-29T04:51:25.891Z,94732.34
2022-08-29T04:53:28.399Z,94735.94
2022-08-29T04:55:31.230Z,94738.28
2022-08-29T04:57:34.856Z,94738.41
2022-08-29T04:59:36.589Z,94733.41
2022-08-29T05:01:38.350Z,94746.28
2022-08-29T05:03:40.064Z,94743.38
2022-08-29T05:05:41.797Z,94749.66
2022-08-29T05:07:45.273Z,94752.41
2022-08-29T05:09:51.180Z,94755.22
2022-08-29T05:11:53.007Z,94756.13
2022-08-29T05:13:54.859Z,94758.56
2022-08-29T05:15:56.556Z,94766.22
2022-08-29T05:17:58.520Z,94765.41
2022-08-29T05:20:01.114Z,94762.22
2022-08-29T05:22:02.786Z,94761.13
2022-08-29T05:24:10.639Z,94763.03
2022-08-29T05:26:12.297Z,94757.69
2022-08-29T05:28:14.232Z,94766.19
2022-08-29T05:30:29.223Z,94770.09
2022-08-29T05:32:36.959Z,94771.94
2022-08-29T05:34:39.094Z,94774.31
2022-08-29T05:36:40.827Z,94761.22
2022-08-29T05:38:42.462Z,94777.28
2022-08-29T05:40:44.185Z,94774.16
2022-08-29T05:42:45.981Z,94776.63
2022-08-29T05:44:47.983Z,94772.63
2022-08-29T05:46:49.703Z,94776.97
2022-08-29T05:48:51.474Z,94775.75
2022-08-29T05:50:53.096Z,94777.03
2022-08-29T05:52:54.747Z,94775.50
2022-08-29T05:54:56.452Z,94783.69
2022-08-29T05:56:58.270Z,94789.25
2022-08-29T05:58:59.897Z,94783.56
2022-08-29T06:01:01.655Z,94788.09
2022-08-29T06:03:05.082Z,94786.50
2022-08-29T06:05:06.929Z,94789.22
2022-08-29T06:07:11.458Z,94785.66
2022-08-29T06:09:13.731Z,94787.53
2022-08-29T06:11:20.953Z,94791.53
2022-08-29T06:13:22.622Z,94790.47
2022-08-29T06:15:25.641Z,94788.69
2022-08-29T06:17:28.142Z,94789.09
2022-08-29T06:19:34.747Z,94790.97
2022-08-29T06:21:36.461Z,94792.13
2022-08-29T06:23:39.796Z,94787.28
2022-08-29T06:25:41.706Z,94789.69
2022-08-29T06:27:43.345Z,94784.59
2022-08-29T06:29:45.018Z,94779.03
2022-08-29T06:31:46.710Z,94780.19
2022-08-29T06:33:51.137Z,94784.81
2022-08-29T06:35:52.990Z,94789.59
2022-08-29T06:37:54.903Z,94788.44
2022-08-29T06:39:56.522Z,94788.41
2022-08-29T06:41:58.195Z,94791.91
2022-08-29T06:44:00.150Z,94781.88
2022-08-29T06:46:01.891Z,94786.47
2022-08-29T06:48:03.763Z,94796.56
2022-08-29T06:50:06.627Z,94797.22
2022-08-29T06:52:08.389Z,94796.22
2022-08-29T06:54:11.942Z,94802.50
2022-08-29T06:56:14.686Z,94791.00
2022-08-29T06:58:16.602Z,94798.13
2022-08-29T07:00:22.766Z,94795.88
2022-08-29T07:02:24.688Z,94795.16
2022-08-29T07:04:26.923Z,94798.06
2022-08-29T07:06:29.251Z,94796.06
2022-08-29T07:08:31.118Z,94801.84
2022-08-29T07:10:32.935Z,94802.28
2022-08-29T07:12:35.086Z,94795.16
2022-08-29T07:14:36.997Z,94805.13
2022-08-29T07:16:38.995Z,94808.44
2022-08-29T07:18:40.622Z,94803.44
2022-08-29T07:20:42.534Z,94809.63
2022-08-29T07:22:51.138Z,94805.38
2022-08-29T07:24:55.146Z,94807.00
2022-08-29T07:26:57.079Z,94809.28
2022-08-29T07:29:03.230Z,94818.53
2022-08-29T07:31:05.788Z,94814.53
2022-08-29T07:33:07.661Z,94809.66
2022-08-29T07:35:13.360Z,94814.91
2022-08-29T07:37:15.320Z,94813.94
2022-08-29T07:39:19.373Z,94818.16
2022-08-29T07:41:20.997Z,94818.91
2022-08-29T07:43:27.412Z,94816.75
2022-08-29T07:45:29.762Z,94819.81
2022-08-29T07:47:32.569Z,94820.09
2022-08-29T07:49:40.995Z,94815.59
2022-08-29T07:51:44.552Z,94816.66
2022-08-29T07:53:46.996Z,94811.91
2022-08-29T07:55:48.647Z,94809.38
2022-08-29T07:57:53.434Z,94807.81
2022-08-29T07:59:55.127Z,94812.63
2022-08-29T08:01:56.955Z,94805.25
2022-08-29T08:03:58.773Z,94798.75
2022-08-29T08:06:00.579Z,94814.47
2022-08-29T08:08:15.018Z,94809.16
2022-08-29T08:10:19.557Z,94802.84
2022-08-29T08:12:21.209Z,94806.00
2022-08-29T08:14:23.023Z,94800.47
2022-08-29T08:16:36.568Z,94796.69
2022-08-29T08:18:39.100Z,94798.81
2022-08-29T08:20:40.993Z,94799.44
2022-08-29T08:22:42.731Z,94798.34
2022-08-29T08:24:45.042Z,94797.44
2022-08-29T08:26:47.867Z,94793.31
2022-08-29T08:28:50.223Z,94797.34
2022-08-29T08:30:52.071Z,94790.16
2022-08-29T08:32:55.044Z,94797.34
2022-08-29T08:34:56.846Z,94796.44
2022-08-29T08:36:58.562Z,94789.56
2022-08-29T08:39:00.264Z,94802.53
2022-08-29T08:41:13.634Z,94799.66
2022-08-29T08:43:26.563Z,94801.41
2022-08-29T08:45:37.634Z,94801.47
2022-08-29T08:48:03.968Z,94800.59
2022-08-29T08:50:13.885Z,94799.94
2022-08-29T08:52:22.162Z,94798.84
2022-08-29T08:54:27.573Z,94797.91
2022-08-29T08:56:36.012Z,94796.03
2022-08-29T08:58:54.231Z,94789.50
2022-08-29T09:01:01.357Z,94790.22
2022-08-29T09:03:48.473Z,94790.50
2022-08-29T09:06:17.691Z,94788.72
2022-08-29T09:08:42.923Z,94790.88
2022-08-29T09:11:03.985Z,94791.88
2022-08-29T09:13:19.386Z,94786.63
2022-08-29T09:15:24.356Z,94784.75
2022-08-29T09:17:36.515Z,94785.53
2022-08-29T09:19:39.031Z,94789.91
2022-08-29T09:22:05.880Z,94791.84
2022-08-29T09:24:12.691Z,94783.53
2022-08-29T09:26:19.622Z,94783.78
2022-08-29T09:28:21.641Z,94779.50
2022-08-29T09:30:25.848Z,94775.22
2022-08-29T09:32:27.786Z,94779.59
2022-08-29T09:34:50.823Z,94780.22
2022-08-29T09:36:57.591Z,94774.31
2022-08-29T09:39:23.842Z,94768.75
2022-08-29T09:41:28.461Z,94768.97
2022-08-29T09:43:38.829Z,94761.72
2022-08-29T09:45:40.590Z,94762.06
2022-08-29T09:47:42.250Z,94762.00
2022-08-29T09:50:06.197Z,94755.63
2022-08-29T09:52:14.638Z,94758.94
2022-08-29T09:54:26.154Z,94757.38
2022-08-29T09:56:28.291Z,94751.81
2022-08-29T09:58:39.944Z,94751.59
2022-08-29T10:00:46.216Z,94751.38
2022-08-29T10:02:55.701Z,94749.81
2022-08-29T10:05:01.438Z,94750.63
2022-08-29T10:07:11.757Z,94750.31
2022-08-29T10:09:27.011Z,94746.53
2022-08-29T10:11:34.998Z,94747.00
2022-08-29T10:13:51.864Z,94745.19
2022-08-29T10:16:12.134Z,94741.94
2022-08-29T10:18:34.986Z,94731.50
2022-08-29T10:21:07.335Z,94736.66
2022-08-29T10:23:30.266Z,94732.09
2022-08-29T10:25:40.382Z,94722.94
2022-08-29T10:27:42.978Z,94724.84
2022-08-29T10:30:05.946Z,94723.28
2022-08-29T10:32:19.638Z,94723.06
2022-08-29T10:34:30.375Z,94714.47
2022-08-29T10:36:34.926Z,94715.75
2022-08-29T10:38:45.873Z,94715.19
2022-08-29T10:40:55.793Z,94709.56
2022-08-29T10:43:08.260Z,94704.69
2022-08-29T10:45:30.899Z,94693.41
2022-08-29T10:47:33.784Z,94698.78
2022-08-29T10:50:42.948Z,94697.97
2022-08-29T10:52:52.951Z,94703.91
2022-08-29T10:55:04.308Z,94696.66
2022-08-29T10:57:07.816Z,94699.59
2022-08-29T10:59:18.241Z,94703.91
2022-08-29T11:01:36.852Z,94702.00
2022-08-29T11:03:45.050Z,94709.28
2022-08-29T11:05:54.008Z,94702.00
2022-08-29T11:08:03.782Z,94698.53
2022-08-29T11:10:17.873Z,94689.16
2022-08-29T11:12:22.150Z,94684.06
2022-08-29T11:14:29.030Z,94683.53
2022-08-29T11:16:40.411Z,94672.53
2022-08-29T11:18:49.421Z,94672.84
2022-08-29T11:20:56.600Z,94666.69
2022-08-29T11:23:02.668Z,94656.28
2022-08-29T11:25:15.998Z,94660.09
2022-08-29T11:27:27.805Z,94657.97
2022-08-29T11:29:54.552Z,94647.56
2022-08-29T11:32:09.929Z,94646.81
2022-08-29T11:34:23.207Z,94648.00
2022-08-29T11:36:49.686Z,94641.03
2022-08-29T11:39:19.425Z,94643.22
2022-08-29T11:41:28.584Z,94637.56
2022-08-29T11:43:36.301Z,94640.03
2022-08-29T11:45:40.859Z,94636.28
2022-08-29T11:47:45.255Z,94633.03
2022-08-29T11:49:50.731Z,94640.53
2022-08-29T11:52:22.337Z,94640.50
2022-08-29T11:54:24.970Z,94637.84
2022-08-29T11:56:28.720Z,94638.09
2022-08-29T11:58:33.363Z,94635.09
2022-08-29T12:00:40.149Z,94638.03
2022-08-29T12:02:49.000Z,94627.25
2022-08-29T12:05:04.561Z,94623.97
2022-08-29T12:07:06.525Z,94633.34
2022-08-29T12:09:14.557Z,94631.88
2022-08-29T12:11:16.307Z,94621.94
2022-08-29T12:13:58.312Z,94636.00
2022-08-29T12:16:09.634Z,94635.94
2022-08-29T12:18:13.532Z,94632.16
2022-08-29T12:20:33.778Z,94632.97
2022-08-29T12:22:55.190Z,94621.97
2022-08-29T12:24:57.659Z,94633.34
2022-08-29T12:26:59.876Z,94627.16
2022-08-29T12:29:02.115Z,94637.72
2022-08-29T12:31:14.257Z,94635.00
2022-08-29T12:33:36.448Z,94629.66
2022-08-29T12:36:10.930Z,94625.88
2022-08-29T12:38:22.854Z,94628.63
2022-08-29T12:40:40.330Z,94631.34
2022-08-29T12:42:51.609Z,94623.78
2022-08-29T12:45:12.494Z,94621.66
2022-08-29T12:47:26.734Z,94617.88
2022-08-29T12:49:50.908Z,94624.91
2022-08-29T12:51:58.887Z,94623.03
2022-08-29T12:54:00.552Z,94625.44
2022-08-29T12:56:22.766Z,94625.44
2022-08-29T12:58:42.207Z,94619.25
2022-08-29T13:00:52.210Z,94626.00
2022-08-29T13:03:15.219Z,94628.41
2022-08-29T13:05:20.106Z,94635.69
2022-08-29T13:09:43.571Z,94640.31
2022-08-29T13:11:45.512Z,94644.59
2022-08-29T13:13:47.232Z,94656.66
2022-08-29T13:15:53.129Z,94662.59
2022-08-29T13:17:54.921Z,94655.56
2022-08-29T13:20:49.933Z,94652.34
2022-08-29T13:22:51.589Z,94654.75
2022-08-29T13:25:04.229Z,94659.06
2022-08-29T13:27:09.251Z,94658.22
2022-08-29T13:29:22.003Z,94656.34
2022-08-29T13:31:33.340Z,94664.13
2022-08-29T13:33:36.047Z,94663.06
2022-08-29T13:35:37.823Z,94676.22
2022-08-29T13:37:41.615Z,94677.31
2022-08-29T13:39:46.343Z,94678.13
2022-08-29T13:41:51.089Z,94677.03
2022-08-29T13:43:53.184Z,94675.13
2022-08-29T13:46:08.832Z,94676.41
2022-08-29T13:48:18.398Z,94686.59
2022-08-29T13:50:20.684Z,94698.16
2022-08-29T13:52:22.442Z,94699.50
2022-08-29T13:54:25.149Z,94695.16
2022-08-29T13:56:32.749Z,94708.28
2022-08-29T13:58:34.570Z,94705.16
2022-08-29T14:00:36.225Z,94699.19
2022-08-29T14:02:44.243Z,94698.78
2022-08-29T14:04:50.268Z,94706.44
2022-08-29T14:06:55.619Z,94699.16
2022-08-29T14:08:59.463Z,94705.66
2022-08-29T14:11:01.068Z,94720.84
2022-08-29T14:13:03.994Z,94749.22
2022-08-29T14:15:09.877Z,94749.69
2022-08-29T14:17:14.330Z,94762.03
2022-08-29T14:19:20.910Z,94763.81
2022-08-29T14:21:22.777Z,94767.59
2022-08-29T14:23:24.435Z,94763.72
2022-08-29T14:25:26.372Z,94761.16
2022-08-29T14:27:28.265Z,94769.28
2022-08-29T14:29:31.470Z,94775.28
2022-08-29T14:31:33.793Z,94770.94
2022-08-29T14:33:35.621Z,94766.78
2022-08-29T14:35:43.217Z,94767.69
2022-08-29T14:37:45.133Z,94761.44
2022-08-29T14:39:49.990Z,94748.38
2022-08-29T14:41:52.232Z,94752.28
2022-08-29T14:43:57.218Z,94747.22
2022-08-29T14:45:59.071Z,94752.19
2022-08-29T14:48:00.942Z,94752.78
2022-08-29T14:50:02.865Z,94745.31
2022-08-29T14:52:04.937Z,94742.41
2022-08-29T14:54:06.550Z,94732.50
2022-08-29T14:56:08.385Z,94731.19
2022-08-29T14:58:10.056Z,94737.13
2022-08-29T15:00:21.280Z,94740.44
2022-08-29T15:02:23.106Z,94735.25
2022-08-29T15:04:35.982Z,94730.72
2022-08-29T15:06:39.126Z,94734.84
2022-08-29T15:08:41.196Z,94727.72
2022-08-29T15:10:42.976Z,94729.44
2022-08-29T15:12:44.871Z,94732.19
2022-08-29T15:14:46.582Z,94728.22
2022-08-29T15:16:48.239Z,94716.47
2022-08-29T15:19:37.252Z,94710.75
2022-08-29T15:21:11.772Z,94715.94
2022-08-29T15:23:13.467Z,94717.81
2022-08-29T15:25:15.964Z,94723.25
2022-08-29T15:27:22.539Z,94725.22
2022-08-29T15:29:26.623Z,94722.03
2022-08-29T15:31:30.013Z,94726.66
2022-08-29T15:33:31.557Z,94726.38
2022-08-29T15:35:33.560Z,94722.34
2022-08-29T15:37:35.605Z,94721.75
2022-08-29T15:39:37.831Z,94718.16
2022-08-29T15:41:39.508Z,94712.59
2022-08-29T15:43:41.249Z,94718.06
2022-08-29T15:45:43.043Z,94721.28
2022-08-29T15:47:46.621Z,94722.19
2022-08-29T15:49:49.397Z,94717.78
2022-08-29T15:51:53.081Z,94723.28
2022-08-29T15:53:54.977Z,94729.56
2022-08-29T15:55:56.669Z,94721.97
2022-08-29T15:57:58.609Z,94726.88
2022-08-29T16:00:00.265Z,94731.56
2022-08-29T16:02:01.987Z,94720.00
2022-08-29T16:04:04.816Z,94732.06
2022-08-29T16:06:06.619Z,94725.75
2022-08-29T16:08:08.361Z,94730.88
2022-08-29T16:10:12.458Z,94727.13
2022-08-29T16:12:14.732Z,94724.22
2022-08-29T16:16:39.876Z,94725.78
2022-08-29T16:18:41.733Z,94732.50
2022-08-29T16:20:44.240Z,94733.06
2022-08-29T16:22:46.023Z,94733.06
2022-08-29T16:24:48.197Z,94729.03
2022-08-29T16:26:49.913Z,94728.69
2022-08-29T16:28:51.664Z,94716.38
2022-08-29T16:30:53.484Z,94711.41
2022-08-29T16:32:56.225Z,94714.72
2022-08-29T16:34:58.741Z,94705.53
2022-08-29T16:37:01.895Z,94710.22
2022-08-29T16:39:05.352Z,94708.03
2022-08-29T16:41:07.671Z,94703.06
2022-08-29T16:43:09.725Z,94709.03
2022-08-29T16:45:13.448Z,94706.88
2022-08-29T16:47:15.439Z,94699.97
2022-08-29T16:49:17.167Z,94705.22
2022-08-29T16:51:20.940Z,94702.78
2022-08-29T16:53:22.908Z,94690.94
2022-08-29T16:55:25.031Z,94694.56
2022-08-29T16:57:26.669Z,94694.47
2022-08-29T16:59:28.348Z,94689.44
2022-08-29T17:01:40.946Z,94687.13
2022-08-29T17:03:42.712Z,94680.69
2022-08-29T17:05:44.323Z,94677.88
2022-08-29T17:07:46.031Z,94679.66
2022-08-29T17:09:47.648Z,94679.75
2022-08-29T17:11:50.705Z,94678.84
2022-08-29T17:13:54.787Z,94683.50
2022-08-29T17:15:56.365Z,94678.25
2022-08-29T17:17:59.644Z,94672.94
2022-08-29T17:20:02.666Z,94681.88
2022-08-29T17:22:04.340Z,94681.16
2022-08-29T17:24:09.774Z,94684.19
2022-08-29T17:26:13.421Z,94687.44
2022-08-29T17:28:18.007Z,94686.84
2022-08-29T17:30:20.674Z,94700.44
2022-08-29T17:32:23.430Z,94697.19
2022-08-29T17:34:25.061Z,94699.28
2022-08-29T17:36:26.950Z,94693.03
2022-08-29T17:38:28.800Z,94696.25
2022-08-29T17:40:33.605Z,94699.41
2022-08-29T17:42:36.697Z,94706.84
2022-08-29T17:44:38.571Z,94701.50
2022-08-29T17:46:40.253Z,94711.69
2022-08-29T17:48:41.971Z,94706.94
2022-08-29T17:50:43.790Z,94702.66
2022-08-29T17:52:45.881Z,94703.69
2022-08-29T17:54:47.955Z,94700.91
2022-08-29T17:56:54.069Z,94709.16
2022-08-29T17:58:56.025Z,94706.47
2022-08-29T18:00:58.133Z,94705.41
2022-08-29T18:02:59.991Z,94707.84
2022-08-29T18:05:02.632Z,94708.47
2022-08-29T18:07:04.391Z,94715.56
2022-08-29T18:09:07.204Z,94719.72
2022-08-29T18:11:12.437Z,94724.56
2022-08-29T18:13:15.826Z,94717.63
2022-08-29T18:15:20.282Z,94717.09
2022-08-29T18:17:25.416Z,94718.38
2022-08-29T18:19:27.348Z,94716.06
2022-08-29T18:21:30.187Z,94716.41
2022-08-29T18:23:31.864Z,94718.63
2022-08-29T18:25:33.621Z,94719.44
2022-08-29T18:27:35.289Z,94726.63
2022-08-29T18:29:37.137Z,94722.91
2022-08-29T18:31:40.868Z,94729.06
2022-08-29T18:33:59.481Z,94726.97
2022-08-29T18:36:02.971Z,94726.38
2022-08-29T18:38:08.249Z,94727.22
2022-08-29T18:40:10.387Z,94729.53
2022-08-29T18:42:24.988Z,94738.34
2022-08-29T18:44:34.549Z,94739.03
2022-08-29T18:46:36.525Z,94733.91
2022-08-29T18:48:40.009Z,94737.97
2022-08-29T18:50:41.641Z,94741.47
2022-08-29T18:52:43.316Z,94740.41
2022-08-29T18:54:45.181Z,94737.97
2022-08-29T18:56:47.222Z,94741.09
2022-08-29T18:58:54.652Z,94735.19
2022-08-29T19:01:10.250Z,94742.16
2022-08-29T19:03:12.498Z,94732.28
2022-08-29T19:05:14.422Z,94741.31
2022-08-29T19:07:16.335Z,94733.78
2022-08-29T19:09:25.782Z,94734.81
2022-08-29T19:11:28.376Z,94737.50
2022-08-29T19:13:30.925Z,94748.75
2022-08-29T19:15:32.699Z,94749.22
2022-08-29T19:17:35.536Z,94750.03
2022-08-29T19:19:56.031Z,94752.91
2022-08-29T19:21:59.172Z,94753.16
2022-08-29T19:24:01.227Z,94749.91
2022-08-29T19:26:06.413Z,94757.53
2022-08-29T19:28:08.649Z,94752.56
2022-08-29T19:30:11.018Z,94762.66
2022-08-29T19:32:12.681Z,94758.06
2022-08-29T19:34:14.376Z,94759.69
2022-08-29T19:36:17.598Z,94765.72
2022-08-29T19:38:21.812Z,94765.88
2022-08-29T19:40:23.767Z,94768.06
2022-08-29T19:42:25.478Z,94770.53
2022-08-29T19:44:27.128Z,94766.47
2022-08-29T19:46:32.836Z,94768.81
2022-08-29T19:48:34.634Z,94764.16
2022-08-29T19:50:36.882Z,94770.53
2022-08-29T19:52:39.057Z,94766.34
2022-08-29T19:54:40.956Z,94762.28
2022-08-29T19:56:46.780Z,94767.97
2022-08-29T19:58:49.357Z,94763.00
2022-08-29T20:00:52.082Z,94765.06
2022-08-29T20:02:55.690Z,94759.38
2022-08-29T20:04:57.390Z,94755.78
2022-08-29T20:07:00.538Z,94766.09
2022-08-29T20:09:02.463Z,94755.41
2022-08-29T20:11:06.804Z,94756.41
2022-08-29T20:13:08.536Z,94752.78
2022-08-29T20:15:12.711Z,94751.78
2022-08-29T20:17:14.463Z,94761.97
2022-08-29T20:19:16.156Z,94758.81
2022-08-29T20:21:19.109Z,94759.88
2022-08-29T20:23:21.269Z,94767.91
2022-08-29T20:25:24.019Z,94764.56
2022-08-29T20:27:26.106Z,94762.50
2022-08-29T20:29:29.562Z,94766.41
2022-08-29T20:31:33.073Z,94769.75
2022-08-29T20:33:38.666Z,94766.28
2022-08-29T20:36:01.069Z,94773.94
2022-08-29T20:38:03.057Z,94778.13
2022-08-29T20:40:05.645Z,94772.91
2022-08-29T20:42:09.066Z,94778.16
2022-08-29T20:44:17.772Z,94775.38
2022-08-29T20:46:19.484Z,94785.97
2022-08-29T20:48:21.345Z,94788.66
2022-08-29T20:50:25.703Z,94789.78
2022-08-29T20:52:27.511Z,94795.22
2022-08-29T20:54:29.493Z,94798.72
2022-08-29T20:56:31.731Z,94798.91
2022-08-29T20:58:34.582Z,94796.69
2022-08-29T21:00:36.626Z,94799.03
2022-08-29T21:02:56.909Z,94802.78
2022-08-29T21:05:17.348Z,94797.47
2022-08-29T21:07:21.684Z,94802.47
2022-08-29T21:09:23.821Z,94807.94
2022-08-29T21:11:25.591Z,94805.88
2022-08-29T21:13:27.312Z,94810.75
2022-08-29T21:15:29.034Z,94804.84
2022-08-29T21:17:30.707Z,94798.09
2022-08-29T21:19:34.313Z,94796.69
2022-08-29T21:21:36.851Z,94804.69
2022-08-29T21:23:39.149Z,94802.00
2022-08-29T21:25:40.904Z,94799.13
2022-08-29T21:27:43.004Z,94803.66
2022-08-29T21:29:44.739Z,94802.59
2022-08-29T21:31:51.015Z,94799.94
2022-08-29T21:33:53.043Z,94798.69
2022-08-29T21:35:57.961Z,94798.69
2022-08-29T21:37:59.619Z,94795.66
2022-08-29T21:40:04.073Z,94795.44
2022-08-29T21:42:06.012Z,94797.84
2022-08-29T21:44:08.705Z,94789.28
2022-08-29T21:46:18.302Z,94790.25
2022-08-29T21:48:20.201Z,94785.88
2022-08-29T21:50:23.315Z,94788.88
2022-08-29T21:52:25.132Z,94787.97
2022-08-29T21:54:27.005Z,94790.63
2022-08-29T21:56:30.198Z,94794.47
2022-08-29T21:58:32.401Z,94795.06
2022-08-29T22:00:41.919Z,94791.81
2022-08-29T22:02:44.950Z,94795.06
2022-08-29T22:04:46.715Z,94792.88
2022-08-29T22:06:52.863Z,94784.03
2022-08-29T22:08:55.788Z,94783.69
2022-08-29T22:10:57.524Z,94781.03
2022-08-29T22:12:59.287Z,94778.94
2022-08-29T22:15:19.871Z,94779.59
2022-08-29T22:17:21.604Z,94777.53
2022-08-29T22:19:23.260Z,94782.50
2022-08-29T22:21:27.262Z,94780.75
2022-08-29T22:23:29.768Z,94784.44
2022-08-29T22:25:31.488Z,94784.09
2022-08-29T22:27:33.594Z,94779.56
2022-08-29T22:29:35.330Z,94777.50
2022-08-29T22:31:37.145Z,94773.78
2022-08-29T22:33:39.486Z,94786.50
2022-08-29T22:35:42.058Z,94783.41
2022-08-29T22:37:44.017Z,94791.53
2022-08-29T22:39:45.634Z,94783.91
2022-08-29T22:41:47.845Z,94796.56
2022-08-29T22:44:08.736Z,94796.69
2022-08-29T22:46:16.014Z,94795.78
2022-08-29T22:48:19.458Z,94800.69
2022-08-29T22:50:23.119Z,94802.28
2022-08-29T22:52:24.681Z,94793.59
2022-08-29T22:54:35.221Z,94797.69
2022-08-29T22:56:39.549Z,94799.31
2022-08-29T22:58:41.262Z,94804.28
2022-08-29T23:00:42.954Z,94805.31
2022-08-29T23:02:44.764Z,94808.22
2022-08-29T23:04:48.501Z,94803.94
2022-08-29T23:06:50.375Z,94804.38
2022-08-29T23:08:52.854Z,94803.19
2022-08-29T23:10:54.614Z,94800.31
2022-08-29T23:12:56.320Z,94812.25
2022-08-29T23:14:57.995Z,94809.59
2022-08-29T23:16:59.848Z,94818.75
2022-08-29T23:19:02.114Z,94813.44
2022-08-29T23:21:03.994Z,94809.38
2022-08-29T23:23:08.464Z,94808.41
2022-08-29T23:25:12.198Z,94806.31
2022-08-29T23:27:13.977Z,94807.72
2022-08-29T23:29:15.721Z,94804.84
2022-08-29T23:31:19.341Z,94807.72
2022-08-29T23:33:21.040Z,94812.25
2022-08-29T23:35:22.833Z,94814.22
2022-08-29T23:37:24.609Z,94803.56
2022-08-29T23:39:26.280Z,94809.28
2022-08-29T23:41:28.003Z,94811.94
2022-08-29T23:43:30.496Z,94806.00
2022-08-29T23:45:38.905Z,94813.19
2022-08-29T23:47:40.725Z,94821.44
2022-08-29T23:49:42.418Z,94818.75
2022-08-29T23:51:44.078Z,94819.56
2022-08-29T23:53:45.985Z,94822.69
2022-08-29T23:55:47.751Z,94816.09
2022-08-29T23:57:49.447Z,94819.56
